Time;durP1;ratioP1;P1;durP2;ratioP2;P2;SDS_P1;SDS_P2;PMS_P1;PMS_P2;Temp;Humidity;BMP_temperature;BMP_pressure;BME280_temperature;BME280_humidity;BME280_pressure;Samples;Min_cycle;Max_cycle;Signal;HPM_P1;HPM_P2
2023/05/20 00:00:54;;;;;;;10.73;4.28;;;;;;;;;;5006730;28;20439;-82
2023/05/20 00:03:20;;;;;;;8.25;4.15;;;;;;;;;;5025280;28;20402;-82
2023/05/20 00:05:46;;;;;;;8.07;4.38;;;;;;;;;;5033755;28;20481;-90
2023/05/20 00:08:12;;;;;;;8.55;4.72;;;;;;;;;;5036164;28;20410;-91
2023/05/20 00:10:38;;;;;;;10.77;4.47;;;;;;;;;;5019048;28;20421;-90
2023/05/20 00:13:08;;;;;;;9.45;4.40;;;;;;;;;;5035477;28;20478;-91
2023/05/20 00:15:35;;;;;;;8.10;4.43;;;;;;;;;;5018939;28;20413;-91
2023/05/20 00:18:01;;;;;;;10.07;4.63;;;;;;;;;;5034795;28;20437;-90
2023/05/20 00:20:27;;;;;;;8.53;4.60;;;;;;;;;;5005321;28;20435;-91
2023/05/20 00:22:53;;;;;;;11.10;4.70;;;;;;;;;;5035119;28;20394;-90
2023/05/20 00:25:19;;;;;;;10.03;4.67;;;;;;;;;;5018040;28;20405;-90
2023/05/20 00:27:46;;;;;;;11.77;5.00;;;;;;;;;;5002472;28;20477;-90
2023/05/20 00:30:12;;;;;;;11.27;5.10;;;;;;;;;;5017290;28;20403;-88
2023/05/20 00:32:38;;;;;;;9.07;5.20;;;;;;;;;;5001774;28;20446;-90
2023/05/20 00:35:04;;;;;;;8.15;4.60;;;;;;;;;;5029017;28;20412;-89
2023/05/20 00:37:30;;;;;;;8.98;5.03;;;;;;;;;;5018055;28;20473;-78
2023/05/20 00:39:57;;;;;;;9.77;4.80;;;;;;;;;;5023307;28;20438;-77
2023/05/20 00:42:23;;;;;;;10.45;5.10;;;;;;;;;;5027595;28;20482;-77
2023/05/20 00:44:49;;;;;;;10.77;5.03;;;;;;;;;;5009052;28;20436;-77
2023/05/20 00:47:19;;;;;;;9.48;5.00;;;;;;;;;;5008707;28;20463;-77
2023/05/20 00:49:45;;;;;;;8.25;4.90;;;;;;;;;;5009984;28;20425;-78
2023/05/20 00:52:12;;;;;;;10.50;5.00;;;;;;;;;;5023977;28;20411;-77
2023/05/20 00:54:39;;;;;;;10.45;5.10;;;;;;;;;;5031905;28;20431;-77
2023/05/20 00:57:06;;;;;;;9.50;5.22;;;;;;;;;;5026796;28;20418;-78
2023/05/20 00:59:33;;;;;;;8.93;5.18;;;;;;;;;;5016384;28;20445;-77
2023/05/20 01:01:59;;;;;;;8.90;4.88;;;;;;;;;;5026097;28;20437;-77
2023/05/20 01:04:26;;;;;;;10.13;4.82;;;;;;;;;;5009428;28;20463;-77
2023/05/20 01:06:52;;;;;;;10.40;5.25;;;;;;;;;;5024895;28;20467;-78
2023/05/20 01:09:18;;;;;;;7.38;4.80;;;;;;;;;;5006300;28;20437;-78
2023/05/20 01:11:51;;;;;;;8.57;5.10;;;;;;;;;;5027407;28;20435;-78
2023/05/20 01:14:18;;;;;;;9.90;5.30;;;;;;;;;;5027810;28;20477;-78
2023/05/20 01:16:46;;;;;;;9.80;5.60;;;;;;;;;;5033079;28;20491;-78
2023/05/20 01:19:27;;;;;;;10.65;5.50;;;;;;;;;;5019451;28;20446;-78
2023/05/20 01:21:53;;;;;;;9.25;5.22;;;;;;;;;;5018453;28;20414;-78
2023/05/20 01:24:19;;;;;;;9.00;5.40;;;;;;;;;;5014198;28;20462;-77
2023/05/20 01:26:47;;;;;;;9.95;5.63;;;;;;;;;;5032879;28;20397;-78
2023/05/20 01:29:17;;;;;;;9.43;5.47;;;;;;;;;;5000356;28;20496;-78
2023/05/20 01:31:43;;;;;;;9.05;5.55;;;;;;;;;;5013547;28;20407;-78
2023/05/20 01:34:10;;;;;;;11.80;5.35;;;;;;;;;;4996932;28;20415;-78
2023/05/20 01:36:36;;;;;;;10.32;5.57;;;;;;;;;;5013434;28;20415;-78
2023/05/20 01:39:04;;;;;;;9.10;5.40;;;;;;;;;;4997193;28;20461;-77
2023/05/20 01:41:33;;;;;;;9.27;5.35;;;;;;;;;;5013566;28;20406;-78
2023/05/20 01:43:59;;;;;;;8.73;5.18;;;;;;;;;;5013207;28;20410;-78
2023/05/20 01:46:25;;;;;;;7.78;4.97;;;;;;;;;;4997388;28;20415;-78
2023/05/20 01:48:51;;;;;;;10.45;5.40;;;;;;;;;;5000725;28;20422;-78
2023/05/20 01:51:17;;;;;;;9.57;5.72;;;;;;;;;;5016251;28;20448;-78
2023/05/20 01:53:43;;;;;;;9.40;5.35;;;;;;;;;;5032521;28;20413;-78
2023/05/20 01:56:09;;;;;;;11.13;5.60;;;;;;;;;;5016069;28;20423;-78
2023/05/20 01:58:35;;;;;;;10.50;5.20;;;;;;;;;;5032637;28;20499;-78
2023/05/20 02:01:02;;;;;;;10.25;5.20;;;;;;;;;;5016095;28;20445;-90
2023/05/20 02:03:28;;;;;;;9.32;5.15;;;;;;;;;;5029263;28;20418;-90
2023/05/20 02:05:54;;;;;;;9.80;5.60;;;;;;;;;;5029187;28;20447;-90
2023/05/20 02:08:20;;;;;;;11.00;5.50;;;;;;;;;;5029407;28;20415;-90
2023/05/20 02:10:48;;;;;;;9.88;5.20;;;;;;;;;;5029720;28;20408;-90
2023/05/20 02:13:14;;;;;;;11.93;5.53;;;;;;;;;;5029745;28;20418;-90
2023/05/20 02:15:43;;;;;;;9.03;5.40;;;;;;;;;;5007285;23;20498;-81
2023/05/20 02:18:11;;;;;;;7.32;4.95;;;;;;;;;;5013035;28;20453;-82
2023/05/20 02:20:37;;;;;;;8.35;5.07;;;;;;;;;;5032025;28;20491;-82
2023/05/20 02:23:04;;;;;;;10.27;5.30;;;;;;;;;;5031879;28;20409;-82
2023/05/20 02:25:31;;;;;;;10.07;5.00;;;;;;;;;;5015558;28;20417;-82
2023/05/20 02:27:57;;;;;;;7.35;5.03;;;;;;;;;;5015636;28;20476;-82
2023/05/20 02:30:23;;;;;;;9.23;5.13;;;;;;;;;;5015528;28;20439;-82
2023/05/20 02:32:49;;;;;;;8.85;5.10;;;;;;;;;;5015799;28;20409;-82
2023/05/20 02:35:15;;;;;;;9.25;5.20;;;;;;;;;;5032046;28;20436;-82
2023/05/20 02:37:43;;;;;;;9.77;5.43;;;;;;;;;;5015701;28;20444;-82
2023/05/20 02:40:09;;;;;;;10.23;5.47;;;;;;;;;;5033044;28;20452;-82
2023/05/20 02:42:35;;;;;;;8.63;5.30;;;;;;;;;;5031935;28;20417;-82
2023/05/20 02:45:02;;;;;;;9.60;4.95;;;;;;;;;;5015666;28;20461;-82
2023/05/20 02:47:28;;;;;;;7.97;5.30;;;;;;;;;;5033311;28;20536;-82
2023/05/20 02:49:54;;;;;;;8.97;5.20;;;;;;;;;;5016565;28;20238;-82
2023/05/20 02:52:20;;;;;;;7.60;5.10;;;;;;;;;;5015654;28;20433;-81
2023/05/20 02:54:47;;;;;;;7.97;5.40;;;;;;;;;;5015804;28;20424;-81
2023/05/20 02:57:13;;;;;;;10.88;5.45;;;;;;;;;;5028105;28;20420;-81
2023/05/20 02:59:39;;;;;;;7.95;5.35;;;;;;;;;;4999750;28;20430;-81
2023/05/20 03:02:05;;;;;;;9.52;5.40;;;;;;;;;;4999678;28;20397;-81
2023/05/20 03:04:31;;;;;;;8.02;5.28;;;;;;;;;;4999747;28;20417;-80
2023/05/20 03:06:57;;;;;;;9.85;5.40;;;;;;;;;;4998695;28;20414;-80
2023/05/20 03:09:23;;;;;;;7.50;5.20;;;;;;;;;;5002078;28;20417;-90
2023/05/20 03:11:50;;;;;;;8.95;5.55;;;;;;;;;;5001626;28;20420;-90
2023/05/20 03:14:16;;;;;;;8.85;5.72;;;;;;;;;;4999729;28;20421;-90
2023/05/20 03:16:42;;;;;;;9.45;5.88;;;;;;;;;;5014484;28;20509;-90
2023/05/20 03:19:08;;;;;;;9.55;5.45;;;;;;;;;;4982774;28;20438;-90
2023/05/20 03:21:34;;;;;;;10.05;5.45;;;;;;;;;;5018679;28;20415;-89
2023/05/20 03:24:00;;;;;;;8.18;5.50;;;;;;;;;;4984514;28;20430;-81
2023/05/20 03:26:26;;;;;;;8.17;5.53;;;;;;;;;;4979433;28;20436;-81
2023/05/20 03:28:52;;;;;;;9.53;5.73;;;;;;;;;;4983060;28;20427;-81
2023/05/20 03:31:18;;;;;;;10.45;5.72;;;;;;;;;;4978138;28;20533;-80
2023/05/20 03:33:45;;;;;;;8.63;5.63;;;;;;;;;;4979724;28;20463;-81
2023/05/20 03:36:11;;;;;;;10.90;5.65;;;;;;;;;;5004439;28;20426;-80
2023/05/20 03:38:37;;;;;;;7.87;5.30;;;;;;;;;;5030391;28;20271;-81
2023/05/20 03:41:03;;;;;;;10.23;5.90;;;;;;;;;;4998073;28;20523;-90
2023/05/20 03:43:29;;;;;;;8.80;5.88;;;;;;;;;;4981393;28;20425;-90
2023/05/20 03:45:55;;;;;;;8.27;5.53;;;;;;;;;;4980712;28;20409;-89
2023/05/20 03:48:21;;;;;;;8.00;5.45;;;;;;;;;;4980537;28;20440;-91
2023/05/20 03:50:47;;;;;;;8.63;5.72;;;;;;;;;;4980670;28;20448;-90
2023/05/20 03:53:13;;;;;;;9.95;5.60;;;;;;;;;;4981866;28;20444;-90
2023/05/20 03:55:39;;;;;;;8.97;4.97;;;;;;;;;;4982719;28;20193;-91
2023/05/20 03:58:05;;;;;;;8.90;5.10;;;;;;;;;;4982205;28;20189;-78
2023/05/20 04:00:31;;;;;;;8.93;5.75;;;;;;;;;;4979314;28;20444;-78
2023/05/20 04:02:58;;;;;;;8.27;5.53;;;;;;;;;;4979376;28;20408;-78
2023/05/20 04:05:24;;;;;;;9.77;5.30;;;;;;;;;;4969208;28;20440;-78
2023/05/20 04:07:50;;;;;;;7.33;5.40;;;;;;;;;;4996342;28;20409;-79
2023/05/20 04:10:18;;;;;;;8.07;5.68;;;;;;;;;;4979258;28;20421;-78
2023/05/20 04:12:44;;;;;;;7.80;5.30;;;;;;;;;;4996837;28;20420;-77
2023/05/20 04:15:10;;;;;;;7.22;5.10;;;;;;;;;;4995099;28;20516;-77
2023/05/20 04:17:37;;;;;;;10.20;5.53;;;;;;;;;;4995251;28;20421;-78
2023/05/20 04:20:06;;;;;;;9.15;5.40;;;;;;;;;;4979864;28;20520;-77
2023/05/20 04:22:32;;;;;;;8.23;4.93;;;;;;;;;;4979569;28;20252;-78
2023/05/20 04:24:58;;;;;;;8.03;5.13;;;;;;;;;;4995358;28;20525;-77
2023/05/20 04:27:24;;;;;;;9.48;5.20;;;;;;;;;;4994965;28;20463;-77
2023/05/20 04:29:51;;;;;;;8.63;4.90;;;;;;;;;;4995622;28;20416;-77
2023/05/20 04:32:18;;;;;;;9.57;5.22;;;;;;;;;;4995020;28;20409;-82
2023/05/20 04:34:45;;;;;;;7.88;5.50;;;;;;;;;;4994661;28;20499;-82
2023/05/20 04:37:12;;;;;;;8.55;5.20;;;;;;;;;;4978964;28;20421;-82
2023/05/20 04:39:38;;;;;;;9.38;5.43;;;;;;;;;;5011381;28;20502;-82
2023/05/20 04:42:04;;;;;;;8.23;5.07;;;;;;;;;;5014737;28;20419;-82
2023/05/20 04:44:30;;;;;;;9.60;4.73;;;;;;;;;;4998506;28;20411;-82
2023/05/20 04:46:56;;;;;;;9.85;4.95;;;;;;;;;;4995441;28;20496;-82
2023/05/20 04:49:24;;;;;;;8.53;4.60;;;;;;;;;;4982854;28;20185;-82
2023/05/20 04:51:51;;;;;;;7.60;4.70;;;;;;;;;;5015394;28;20423;-81
2023/05/20 04:54:19;;;;;;;6.25;4.55;;;;;;;;;;4997943;28;20446;-82
2023/05/20 04:56:45;;;;;;;6.93;4.53;;;;;;;;;;5014290;28;20458;-82
2023/05/20 04:59:12;;;;;;;6.43;4.20;;;;;;;;;;4998657;28;20205;-82
2023/05/20 05:01:37;;;;;;;7.18;4.72;;;;;;;;;;5017721;28;20523;-82
2023/05/20 05:04:04;;;;;;;5.17;4.27;;;;;;;;;;5018471;28;20211;-80
2023/05/20 05:06:30;;;;;;;8.25;4.88;;;;;;;;;;5017063;28;20413;-80
2023/05/20 05:08:56;;;;;;;7.25;5.00;;;;;;;;;;5017224;28;20460;-80
2023/05/20 05:11:22;;;;;;;8.80;4.80;;;;;;;;;;5016863;28;20405;-80
2023/05/20 05:13:48;;;;;;;7.97;4.60;;;;;;;;;;5016522;28;20420;-80
2023/05/20 05:16:14;;;;;;;8.50;5.10;;;;;;;;;;4999341;28;20449;-80
2023/05/20 05:18:40;;;;;;;9.00;4.60;;;;;;;;;;5017525;28;20181;-80
2023/05/20 05:21:06;;;;;;;7.40;4.75;;;;;;;;;;5001409;28;20446;-90
2023/05/20 05:23:32;;;;;;;7.13;4.65;;;;;;;;;;5019593;28;20414;-91
2023/05/20 05:25:58;;;;;;;6.32;4.60;;;;;;;;;;5035620;28;20420;-90
2023/05/20 05:28:25;;;;;;;6.18;4.68;;;;;;;;;;5033650;28;20424;-90
2023/05/20 05:30:51;;;;;;;7.78;4.80;;;;;;;;;;5033480;28;20422;-90
2023/05/20 05:33:17;;;;;;;6.70;4.65;;;;;;;;;;5033998;28;20410;-91
2023/05/20 05:35:43;;;;;;;8.85;4.80;;;;;;;;;;5017334;28;20416;-90
2023/05/20 05:38:09;;;;;;;6.65;4.55;;;;;;;;;;5017109;28;20414;-90
2023/05/20 05:40:36;;;;;;;8.67;4.73;;;;;;;;;;5016737;28;20553;-91
2023/05/20 05:43:02;;;;;;;6.10;4.85;;;;;;;;;;5032373;28;20398;-90
2023/05/20 05:45:28;;;;;;;6.45;4.70;;;;;;;;;;5017775;28;20410;-90
2023/05/20 05:47:54;;;;;;;7.50;4.57;;;;;;;;;;5007785;28;20476;-82
2023/05/20 05:50:20;;;;;;;5.57;4.80;;;;;;;;;;5032265;28;20459;-82
2023/05/20 05:52:46;;;;;;;5.47;4.45;;;;;;;;;;5032728;28;20409;-82
2023/05/20 05:55:12;;;;;;;7.35;4.60;;;;;;;;;;5016055;28;20413;-82
2023/05/20 05:57:38;;;;;;;7.15;4.50;;;;;;;;;;5032115;28;20409;-82
2023/05/20 06:00:04;;;;;;;6.23;4.17;;;;;;;;;;5032453;28;20459;-82
2023/05/20 06:02:34;;;;;;;6.77;4.30;;;;;;;;;;5032254;28;20525;-90
2023/05/20 06:05:01;;;;;;;5.85;4.10;;;;;;;;;;5018869;28;20500;-90
2023/05/20 06:07:27;;;;;;;6.63;4.32;;;;;;;;;;5016782;28;20428;-90
2023/05/20 06:09:53;;;;;;;7.38;4.20;;;;;;;;;;5033857;28;20409;-90
2023/05/20 06:12:19;;;;;;;5.35;3.85;;;;;;;;;;5033290;28;20417;-90
2023/05/20 06:14:45;;;;;;;5.80;4.18;;;;;;;;;;5016397;28;20493;-91
2023/05/20 06:17:11;;;;;;;4.77;3.90;;;;;;;;;;5016779;28;20536;-90
2023/05/20 06:19:37;;;;;;;6.10;4.20;;;;;;;;;;5016619;28;20532;-91
2023/05/20 06:22:03;;;;;;;6.40;3.88;;;;;;;;;;5019273;28;20433;-91
2023/05/20 06:24:29;;;;;;;6.68;3.90;;;;;;;;;;5018005;28;20406;-90
2023/05/20 06:26:56;;;;;;;5.70;3.80;;;;;;;;;;5002813;28;20488;-90
2023/05/20 06:29:22;;;;;;;6.15;3.85;;;;;;;;;;5015563;28;20448;-78
2023/05/20 06:31:48;;;;;;;6.80;3.75;;;;;;;;;;5014715;28;20413;-78
2023/05/20 06:34:14;;;;;;;6.80;4.03;;;;;;;;;;5020559;28;20430;-77
2023/05/20 06:36:40;;;;;;;6.65;3.60;;;;;;;;;;5015095;28;20425;-77
2023/05/20 06:39:11;;;;;;;4.80;3.53;;;;;;;;;;5014877;28;20463;-78
2023/05/20 06:41:37;;;;;;;7.40;3.72;;;;;;;;;;4997865;28;20441;-78
2023/05/20 06:44:03;;;;;;;5.05;3.78;;;;;;;;;;4998539;28;20420;-78
2023/05/20 06:46:29;;;;;;;5.65;3.58;;;;;;;;;;5021042;28;20420;-78
2023/05/20 06:48:55;;;;;;;3.97;3.40;;;;;;;;;;5014054;28;20509;-77
2023/05/20 06:51:21;;;;;;;4.57;3.50;;;;;;;;;;5030944;28;20485;-78
2023/05/20 06:53:48;;;;;;;6.00;3.90;;;;;;;;;;5027313;28;20424;-77
2023/05/20 06:56:14;;;;;;;4.78;3.40;;;;;;;;;;4998278;28;20421;-78
2023/05/20 06:58:40;;;;;;;6.13;3.70;;;;;;;;;;5015759;28;20489;-78
2023/05/20 07:01:06;;;;;;;6.05;3.75;;;;;;;;;;5014697;28;20410;-90
2023/05/20 07:03:32;;;;;;;5.30;3.50;;;;;;;;;;5020730;28;20177;-90
2023/05/20 07:05:58;;;;;;;4.00;3.60;;;;;;;;;;5004891;28;20177;-91
2023/05/20 07:08:24;;;;;;;4.73;3.47;;;;;;;;;;4988799;28;20197;-90
2023/05/20 07:10:50;;;;;;;8.05;4.10;;;;;;;;;;4985365;28;20442;-90
2023/05/20 07:13:16;;;;;;;5.75;3.92;;;;;;;;;;5000895;28;20419;-91
2023/05/20 07:15:46;;;;;;;5.68;3.60;;;;;;;;;;4999516;28;20520;-90
2023/05/20 07:18:12;;;;;;;6.13;3.40;;;;;;;;;;5002996;28;20514;-78
2023/05/20 07:20:38;;;;;;;6.18;3.75;;;;;;;;;;5014508;28;20433;-77
2023/05/20 07:23:04;;;;;;;6.38;3.67;;;;;;;;;;5015400;28;20444;-78
2023/05/20 07:25:30;;;;;;;6.20;3.60;;;;;;;;;;4996717;28;20403;-78
2023/05/20 07:27:56;;;;;;;5.35;4.10;;;;;;;;;;5018587;28;20401;-78
2023/05/20 07:30:22;;;;;;;11.40;5.63;;;;;;;;;;5032856;28;20421;-77
2023/05/20 07:32:48;;;;;;;7.03;4.10;;;;;;;;;;5034648;28;20496;-77
2023/05/20 07:35:14;;;;;;;6.70;3.93;;;;;;;;;;5011794;28;20469;-80
2023/05/20 07:37:40;;;;;;;5.82;3.65;;;;;;;;;;5001990;28;20413;-80
2023/05/20 07:40:07;;;;;;;5.60;3.67;;;;;;;;;;5030899;28;20483;-80
2023/05/20 07:42:33;;;;;;;6.07;3.77;;;;;;;;;;5015895;28;20472;-80
2023/05/20 07:44:59;;;;;;;5.10;3.60;;;;;;;;;;5012010;28;20513;-80
2023/05/20 07:47:26;;;;;;;5.03;3.40;;;;;;;;;;5016339;28;20449;-80
2023/05/20 07:49:52;;;;;;;7.85;3.80;;;;;;;;;;5026286;28;20460;-80
2023/05/20 07:52:18;;;;;;;6.20;3.78;;;;;;;;;;5034194;28;20405;-80
2023/05/20 07:54:44;;;;;;;5.90;4.00;;;;;;;;;;5001429;28;20422;-80
2023/05/20 07:57:10;;;;;;;5.60;3.70;;;;;;;;;;5013541;28;20442;-80
2023/05/20 07:59:36;;;;;;;6.55;3.50;;;;;;;;;;5020007;28;20430;-80
2023/05/20 08:02:02;;;;;;;7.30;3.70;;;;;;;;;;5017605;28;20442;-80
2023/05/20 08:04:28;;;;;;;4.80;3.47;;;;;;;;;;5019270;28;20411;-80
2023/05/20 08:06:54;;;;;;;4.13;3.60;;;;;;;;;;5029809;28;20517;-80
2023/05/20 08:09:21;;;;;;;5.93;3.50;;;;;;;;;;5016240;28;20422;-81
2023/05/20 08:11:47;;;;;;;5.07;3.70;;;;;;;;;;5013818;28;20451;-80
2023/05/20 08:14:13;;;;;;;4.90;3.67;;;;;;;;;;5017473;28;20425;-80
2023/05/20 08:16:39;;;;;;;6.32;3.35;;;;;;;;;;5013095;28;20481;-81
2023/05/20 08:19:05;;;;;;;5.15;3.38;;;;;;;;;;5025936;28;20442;-81
2023/05/20 08:21:32;;;;;;;5.05;3.22;;;;;;;;;;4983348;28;20415;-81
2023/05/20 08:23:58;;;;;;;7.28;3.47;;;;;;;;;;4992590;28;20427;-78
2023/05/20 08:26:24;;;;;;;8.82;3.75;;;;;;;;;;4995341;28;20495;-78
2023/05/20 08:28:50;;;;;;;6.18;3.40;;;;;;;;;;5038253;28;20407;-78
2023/05/20 08:31:16;;;;;;;7.25;3.38;;;;;;;;;;5054329;28;20408;-78
2023/05/20 08:33:43;;;;;;;6.57;3.20;;;;;;;;;;5003639;28;20452;-78
2023/05/20 08:36:09;;;;;;;5.85;3.17;;;;;;;;;;5017671;28;20432;-78
2023/05/20 08:38:35;;;;;;;5.60;2.80;;;;;;;;;;4996995;28;20419;-78
2023/05/20 08:41:01;;;;;;;6.13;2.90;;;;;;;;;;4981662;28;20484;-78
2023/05/20 08:43:29;;;;;;;4.30;2.95;;;;;;;;;;5019342;28;20421;-78
2023/05/20 08:45:55;;;;;;;4.93;2.80;;;;;;;;;;5001435;28;20512;-78
2023/05/20 08:48:26;;;;;;;5.68;2.80;;;;;;;;;;4999878;28;20414;-77
2023/05/20 08:50:53;;;;;;;5.25;2.90;;;;;;;;;;5016585;28;20184;-78
2023/05/20 08:53:21;;;;;;;6.18;3.22;;;;;;;;;;5031958;28;20184;-78
2023/05/20 08:55:56;;;;;;;5.32;2.80;;;;;;;;;;5016080;28;20417;-77
2023/05/20 08:58:22;;;;;;;4.40;2.50;;;;;;;;;;4996199;28;21175;-77
2023/05/20 09:00:48;;;;;;;3.43;2.50;;;;;;;;;;5015693;28;20432;-78
2023/05/20 09:03:14;;;;;;;7.72;2.88;;;;;;;;;;5010746;28;20431;-79
2023/05/20 09:05:40;;;;;;;5.93;2.70;;;;;;;;;;5017113;28;20467;-78
2023/05/20 09:08:07;;;;;;;6.22;2.78;;;;;;;;;;4999918;28;20413;-78
2023/05/20 09:10:34;;;;;;;3.85;2.70;;;;;;;;;;5016632;28;20409;-78
2023/05/20 09:13:04;;;;;;;4.72;2.40;;;;;;;;;;5000444;28;20489;-78
2023/05/20 09:15:31;;;;;;;5.00;2.72;;;;;;;;;;5016313;28;20448;-82
2023/05/20 09:18:00;;;;;;;4.82;2.50;;;;;;;;;;5014984;28;20440;-82
2023/05/20 09:20:28;;;;;;;3.73;2.37;;;;;;;;;;5017358;28;20449;-83
2023/05/20 09:22:58;;;;;;;5.10;2.40;;;;;;;;;;5018477;28;20227;-82
2023/05/20 09:25:24;;;;;;;4.63;2.42;;;;;;;;;;5017513;28;20467;-83
2023/05/20 09:27:50;;;;;;;5.00;2.42;;;;;;;;;;5016579;28;20441;-83
2023/05/20 09:30:19;;;;;;;5.03;2.60;;;;;;;;;;5022904;28;20459;-82
2023/05/20 09:32:45;;;;;;;7.80;2.50;;;;;;;;;;5012711;28;20422;-78
2023/05/20 09:35:15;;;;;;;5.15;2.70;;;;;;;;;;4980884;28;20409;-79
2023/05/20 09:37:46;;;;;;;7.65;2.50;;;;;;;;;;5014366;28;20192;-78
2023/05/20 09:40:14;;;;;;;5.30;2.63;;;;;;;;;;5024206;28;20441;-78
2023/05/20 09:42:42;;;;;;;4.80;2.47;;;;;;;;;;5017608;28;20180;-78
2023/05/20 09:45:08;;;;;;;5.00;2.30;;;;;;;;;;5017081;28;20176;-78
2023/05/20 09:47:36;;;;;;;4.78;2.50;;;;;;;;;;5033891;28;20420;-89
2023/05/20 09:50:02;;;;;;;4.47;2.30;;;;;;;;;;5016896;28;20230;-88
2023/05/20 09:52:28;;;;;;;6.55;2.35;;;;;;;;;;5016570;28;20188;-88
2023/05/20 09:54:55;;;;;;;5.13;2.50;;;;;;;;;;5032458;28;20425;-88
2023/05/20 09:57:21;;;;;;;2.83;2.20;;;;;;;;;;4997451;28;20186;-88
2023/05/20 09:59:47;;;;;;;4.63;2.25;;;;;;;;;;5027529;28;20219;-87
2023/05/20 10:02:13;;;;;;;5.50;2.28;;;;;;;;;;5015581;28;20410;-88
2023/05/20 10:04:44;;;;;;;6.65;2.60;;;;;;;;;;5016067;28;20442;-78
2023/05/20 10:07:13;;;;;;;5.97;2.60;;;;;;;;;;5032326;28;20437;-78
2023/05/20 10:09:49;;;;;;;5.78;2.50;;;;;;;;;;5015710;28;20432;-78
2023/05/20 10:12:21;;;;;;;4.38;2.60;;;;;;;;;;5014738;28;20409;-78
2023/05/20 10:14:56;;;;;;;3.17;2.50;;;;;;;;;;5032004;28;20465;-78
2023/05/20 10:17:26;;;;;;;4.28;2.40;;;;;;;;;;5015953;28;20448;-79
2023/05/20 10:19:57;;;;;;;5.15;2.60;;;;;;;;;;5013359;28;20217;-79
2023/05/20 10:22:33;;;;;;;7.63;2.45;;;;;;;;;;5016751;28;20180;-83
2023/05/20 10:24:59;;;;;;;2.80;2.10;;;;;;;;;;5016243;28;20409;-82
2023/05/20 10:27:25;;;;;;;3.75;2.08;;;;;;;;;;5016072;28;20267;-83
2023/05/20 10:29:52;;;;;;;3.35;2.30;;;;;;;;;;5032055;28;20492;-83
2023/05/20 10:32:38;;;;;;;4.97;2.30;;;;;;;;;;5016381;28;20418;-82
2023/05/20 10:35:05;;;;;;;3.30;2.10;;;;;;;;;;5032853;28;20488;-83
2023/05/20 10:37:42;;;;;;;5.07;2.30;;;;;;;;;;5015979;28;20448;-83
2023/05/20 10:40:10;;;;;;;5.45;2.25;;;;;;;;;;5033145;28;20544;-82
2023/05/20 10:42:36;;;;;;;4.50;2.17;;;;;;;;;;5014676;28;20410;-83
2023/05/20 10:45:02;;;;;;;3.92;2.40;;;;;;;;;;5014876;28;20405;-82
2023/05/20 10:47:28;;;;;;;3.72;2.00;;;;;;;;;;4997297;28;20130;-83
2023/05/20 10:49:55;;;;;;;17.70;2.88;;;;;;;;;;5010896;28;20432;-83
2023/05/20 10:52:21;;;;;;;3.55;2.10;;;;;;;;;;5015336;28;20441;-83
2023/05/20 10:54:53;;;;;;;4.78;2.20;;;;;;;;;;5033034;28;20404;-91
2023/05/20 10:57:19;;;;;;;4.28;2.50;;;;;;;;;;5033192;28;20413;-91
2023/05/20 10:59:46;;;;;;;4.25;2.17;;;;;;;;;;5032264;28;20450;-90
2023/05/20 11:02:14;;;;;;;2.30;2.10;;;;;;;;;;5031940;28;20412;-89
2023/05/20 11:04:42;;;;;;;3.97;2.20;;;;;;;;;;5033170;28;20398;-90
2023/05/20 11:07:08;;;;;;;5.53;2.33;;;;;;;;;;5015484;28;20496;-89
2023/05/20 11:09:34;;;;;;;7.70;2.50;;;;;;;;;;5015808;28;20424;-90
2023/05/20 11:12:01;;;;;;;3.00;2.35;;;;;;;;;;5015869;28;20416;-89
2023/05/20 11:14:30;;;;;;;3.25;2.35;;;;;;;;;;5015468;28;20413;-89
2023/05/20 11:17:00;;;;;;;3.45;2.05;;;;;;;;;;4998799;28;20536;-92
2023/05/20 11:19:26;;;;;;;4.80;2.13;;;;;;;;;;5015361;28;20508;-90
2023/05/20 11:21:53;;;;;;;5.22;2.20;;;;;;;;;;5013982;28;20422;-79
2023/05/20 11:24:26;;;;;;;7.95;2.30;;;;;;;;;;4997682;28;20425;-79
2023/05/20 11:26:52;;;;;;;4.00;2.20;;;;;;;;;;5015049;28;20409;-83
2023/05/20 11:29:20;;;;;;;3.17;1.98;;;;;;;;;;5016071;28;20183;-84
2023/05/20 11:31:47;;;;;;;3.53;1.85;;;;;;;;;;5016347;28;20172;-83
2023/05/20 11:34:13;;;;;;;3.67;2.00;;;;;;;;;;4998792;28;20428;-83
2023/05/20 11:36:42;;;;;;;3.55;2.08;;;;;;;;;;5014677;28;20413;-83
2023/05/20 11:39:13;;;;;;;3.08;2.13;;;;;;;;;;4998984;28;20472;-83
2023/05/20 11:41:39;;;;;;;3.20;2.05;;;;;;;;;;5001857;28;20433;-83
2023/05/20 11:44:09;;;;;;;3.45;2.00;;;;;;;;;;5018714;28;20397;-82
2023/05/20 11:46:40;;;;;;;3.75;2.00;;;;;;;;;;5018853;28;20410;-82
2023/05/20 11:49:07;;;;;;;6.93;2.50;;;;;;;;;;5018345;28;20441;-81
2023/05/20 11:51:33;;;;;;;22.00;3.30;;;;;;;;;;5018469;28;20425;-82
2023/05/20 11:54:03;;;;;;;7.47;2.90;;;;;;;;;;5018486;28;20473;-82
2023/05/20 11:56:40;;;;;;;7.78;2.45;;;;;;;;;;5017825;28;20435;-81
2023/05/20 11:59:07;;;;;;;7.30;2.50;;;;;;;;;;5015935;28;20561;-82
2023/05/20 12:01:42;;;;;;;3.40;2.17;;;;;;;;;;5038567;28;20513;-80
2023/05/20 12:04:08;;;;;;;3.53;1.90;;;;;;;;;;4999783;28;20447;-79
2023/05/20 12:06:36;;;;;;;3.50;2.08;;;;;;;;;;5003689;28;20408;-79
2023/05/20 12:09:07;;;;;;;5.27;2.20;;;;;;;;;;5034850;28;20417;-80
2023/05/20 12:11:39;;;;;;;13.60;2.65;;;;;;;;;;5018241;28;20433;-79
2023/05/20 12:14:06;;;;;;;5.00;2.40;;;;;;;;;;5017953;28;20425;-79
2023/05/20 12:16:33;;;;;;;5.63;2.00;;;;;;;;;;5001615;28;20453;-80
2023/05/20 12:18:59;;;;;;;4.90;2.30;;;;;;;;;;5001509;28;20437;-90
2023/05/20 12:21:25;;;;;;;5.53;2.20;;;;;;;;;;5017924;28;20401;-90
2023/05/20 12:23:56;;;;;;;4.50;2.28;;;;;;;;;;5017679;28;20494;-90
2023/05/20 12:26:22;;;;;;;4.00;2.10;;;;;;;;;;5002210;28;20456;-91
2023/05/20 12:28:48;;;;;;;7.35;2.20;;;;;;;;;;5017949;28;20468;-90
2023/05/20 12:31:15;;;;;;;4.25;2.10;;;;;;;;;;5017742;28;20413;-88
2023/05/20 12:33:41;;;;;;;3.00;2.05;;;;;;;;;;5001575;28;20476;-90
2023/05/20 12:36:07;;;;;;;3.70;2.10;;;;;;;;;;5001388;28;20416;-90
2023/05/20 12:38:33;;;;;;;4.65;1.95;;;;;;;;;;5001547;28;20414;-91
2023/05/20 12:41:00;;;;;;;6.28;2.13;;;;;;;;;;5018668;28;20429;-90
2023/05/20 12:43:26;;;;;;;4.32;2.00;;;;;;;;;;5003996;28;20428;-89
2023/05/20 12:45:52;;;;;;;6.65;2.10;;;;;;;;;;4998841;28;20409;-90
2023/05/20 12:48:18;;;;;;;5.05;2.40;;;;;;;;;;5014466;28;20435;-91
2023/05/20 12:50:44;;;;;;;3.33;2.10;;;;;;;;;;5016775;28;20463;-80
2023/05/20 12:53:11;;;;;;;3.70;2.10;;;;;;;;;;5016921;28;20406;-80
2023/05/20 12:55:37;;;;;;;5.70;2.00;;;;;;;;;;5033758;28;20409;-80
2023/05/20 12:58:03;;;;;;;4.95;2.20;;;;;;;;;;5017633;28;20452;-80
2023/05/20 13:00:30;;;;;;;4.73;2.30;;;;;;;;;;5034211;28;20433;-80
2023/05/20 13:02:56;;;;;;;4.35;2.00;;;;;;;;;;5017375;28;20413;-80
2023/05/20 13:05:22;;;;;;;3.90;1.98;;;;;;;;;;5033793;28;20437;-79
2023/05/20 13:07:48;;;;;;;4.70;2.15;;;;;;;;;;5033629;28;20402;-83
2023/05/20 13:10:14;;;;;;;2.65;2.13;;;;;;;;;;5017724;28;20412;-83
2023/05/20 13:12:44;;;;;;;2.50;2.03;;;;;;;;;;5016881;28;20436;-83
2023/05/20 13:15:11;;;;;;;2.97;2.13;;;;;;;;;;5016872;28;20424;-83
2023/05/20 13:17:37;;;;;;;4.70;2.30;;;;;;;;;;5033423;28;20433;-82
2023/05/20 13:20:03;;;;;;;3.40;2.30;;;;;;;;;;5033026;28;20468;-82
2023/05/20 13:22:29;;;;;;;3.58;2.15;;;;;;;;;;5016743;28;20484;-83
2023/05/20 13:24:55;;;;;;;5.43;2.47;;;;;;;;;;5017086;28;20452;-79
2023/05/20 13:27:21;;;;;;;3.70;2.38;;;;;;;;;;5016892;28;20488;-79
2023/05/20 13:29:47;;;;;;;4.85;2.42;;;;;;;;;;5016430;28;20492;-79
2023/05/20 13:32:13;;;;;;;6.13;2.47;;;;;;;;;;5033221;28;20412;-79
2023/05/20 13:34:42;;;;;;;5.40;2.40;;;;;;;;;;5033129;28;20401;-79
2023/05/20 13:37:08;;;;;;;7.43;2.20;;;;;;;;;;5033023;28;20402;-80
2023/05/20 13:39:35;;;;;;;3.60;2.13;;;;;;;;;;5016748;28;20448;-79
2023/05/20 13:42:01;;;;;;;4.68;2.38;;;;;;;;;;5016604;28;20413;-85
2023/05/20 13:44:27;;;;;;;3.25;2.30;;;;;;;;;;5016381;28;20437;-85
2023/05/20 13:46:53;;;;;;;9.48;7.40;;;;;;;;;;5016511;28;20416;-84
2023/05/20 13:49:20;;;;;;;4.75;2.92;;;;;;;;;;5032853;28;20401;-85
2023/05/20 13:51:46;;;;;;;4.78;2.30;;;;;;;;;;5032735;28;20417;-84
2023/05/20 13:54:12;;;;;;;4.18;2.40;;;;;;;;;;5016338;28;20467;-84
2023/05/20 13:56:38;;;;;;;2.67;2.05;;;;;;;;;;5016871;28;20459;-84
2023/05/20 13:59:04;;;;;;;5.20;2.20;;;;;;;;;;5016341;28;20467;-84
2023/05/20 14:01:33;;;;;;;7.13;2.08;;;;;;;;;;5032451;28;20409;-84
2023/05/20 14:03:59;;;;;;;5.43;2.43;;;;;;;;;;5032783;28;20393;-84
2023/05/20 14:06:28;;;;;;;5.88;2.20;;;;;;;;;;5033129;28;20426;-84
2023/05/20 14:08:54;;;;;;;4.10;2.30;;;;;;;;;;5035512;28;20503;-84
2023/05/20 14:11:20;;;;;;;4.40;2.60;;;;;;;;;;5030093;28;20421;-84
2023/05/20 14:13:46;;;;;;;4.05;2.20;;;;;;;;;;5015610;28;20464;-83
2023/05/20 14:16:12;;;;;;;6.18;2.20;;;;;;;;;;4998749;28;20457;-84
2023/05/20 14:18:40;;;;;;;3.00;2.13;;;;;;;;;;4998936;28;20433;-84
2023/05/20 14:21:06;;;;;;;5.78;2.20;;;;;;;;;;4997459;28;20571;-84
2023/05/20 14:23:32;;;;;;;3.03;1.92;;;;;;;;;;5013309;28;20469;-84
2023/05/20 14:25:58;;;;;;;5.22;2.00;;;;;;;;;;5032864;28;20437;-84
2023/05/20 14:28:24;;;;;;;4.47;2.20;;;;;;;;;;4999009;28;20409;-84
2023/05/20 14:30:50;;;;;;;5.47;2.10;;;;;;;;;;5044955;23;20486;-90
2023/05/20 14:33:16;;;;;;;3.67;2.00;;;;;;;;;;5052311;28;20419;-91
2023/05/20 14:35:42;;;;;;;3.97;2.47;;;;;;;;;;5052410;28;20484;-90
2023/05/20 14:38:08;;;;;;;8.55;5.13;;;;;;;;;;5036058;28;20474;-90